createdAt,value
2024-03-05T00:00:38.338Z,68.47
2024-03-05T00:03:26.015Z,70.47
2024-03-05T00:05:52.893Z,66.20
2024-03-05T00:08:19.954Z,70.47
2024-03-05T00:10:47.450Z,72.15
2024-03-05T00:13:14.555Z,75.40
2024-03-05T00:15:41.336Z,78.75
2024-03-05T00:18:08.489Z,81.50
2024-03-05T00:20:35.309Z,81.07
2024-03-05T00:23:02.356Z,78.60
2024-03-05T00:25:29.160Z,84.00
2024-03-05T00:27:56.310Z,88.32
2024-03-05T00:30:23.630Z,83.40
2024-03-05T00:32:50.810Z,88.82
2024-03-05T00:35:17.964Z,86.70
2024-03-05T00:37:45.444Z,90.55
2024-03-05T00:40:13.023Z,82.40
2024-03-05T00:42:40.319Z,87.95
2024-03-05T00:45:12.083Z,78.38
2024-03-05T00:47:39.535Z,87.57
2024-03-05T00:50:06.869Z,86.00
2024-03-05T00:52:34.741Z,86.00
2024-03-05T00:55:02.368Z,84.75
2024-03-05T00:57:30.187Z,81.25
2024-03-05T00:59:57.337Z,88.45
2024-03-05T01:02:24.811Z,81.45
2024-03-05T01:04:54.486Z,82.30
2024-03-05T01:09:50.330Z,86.38
2024-03-05T01:12:17.806Z,83.18
2024-03-05T01:14:45.780Z,90.90
2024-03-05T01:17:13.836Z,88.30
2024-03-05T01:19:41.025Z,92.57
2024-03-05T01:22:08.253Z,90.57
2024-03-05T01:24:34.960Z,90.57
2024-03-05T01:27:02.017Z,88.82
2024-03-05T01:29:28.807Z,83.43
2024-03-05T01:32:00.804Z,85.05
2024-03-05T01:34:27.967Z,79.25
2024-03-05T01:36:58.912Z,75.93
2024-03-05T01:39:27.062Z,84.97
2024-03-05T01:41:55.290Z,81.13
2024-03-05T01:44:22.313Z,79.95
2024-03-05T01:46:52.688Z,78.65
2024-03-05T01:49:22.560Z,70.28
2024-03-05T01:51:49.926Z,64.47
2024-03-05T01:54:19.099Z,68.30
2024-03-05T01:56:50.434Z,62.80
2024-03-05T01:59:18.736Z,68.93
2024-03-05T02:01:46.564Z,78.47
2024-03-05T02:04:13.972Z,77.35
2024-03-05T02:06:43.468Z,67.28
2024-03-05T02:09:12.715Z,67.65
2024-03-05T02:11:52.624Z,58.08
2024-03-05T02:14:25.291Z,52.67
2024-03-05T02:16:53.096Z,51.88
2024-03-05T02:19:19.917Z,48.92
2024-03-05T02:21:47.320Z,53.53
2024-03-05T02:24:14.102Z,51.60
2024-03-05T02:26:41.812Z,51.00
2024-03-05T02:29:11.819Z,52.30
2024-03-05T02:31:38.938Z,46.97
2024-03-05T02:34:06.230Z,49.97
2024-03-05T02:36:33.420Z,47.45
2024-03-05T02:39:00.171Z,37.95
2024-03-05T02:41:27.220Z,34.72
2024-03-05T02:43:54.025Z,30.52
2024-03-05T02:46:21.230Z,34.03
2024-03-05T02:48:49.043Z,35.33
2024-03-05T02:51:16.153Z,35.17
2024-03-05T02:53:42.901Z,28.83
2024-03-05T02:56:11.391Z,32.67
2024-03-05T02:58:38.463Z,32.25
2024-03-05T03:01:08.994Z,38.15
2024-03-05T03:03:36.255Z,37.60
2024-03-05T03:06:04.443Z,36.60
2024-03-05T03:08:31.529Z,34.95
2024-03-05T03:10:58.673Z,32.55
2024-03-05T03:13:25.642Z,32.13
2024-03-05T03:15:52.725Z,28.27
2024-03-05T03:18:21.397Z,25.85
2024-03-05T03:20:48.475Z,28.17
2024-03-05T03:23:15.373Z,25.75
2024-03-05T03:25:42.622Z,26.02
2024-03-05T03:28:09.504Z,27.02
2024-03-05T03:30:37.065Z,28.02
2024-03-05T03:33:05.786Z,31.50
2024-03-05T03:35:33.497Z,27.55
2024-03-05T03:38:00.374Z,24.35
2024-03-05T03:40:27.984Z,23.90
2024-03-05T03:42:55.945Z,25.75
2024-03-05T03:45:23.138Z,24.75
2024-03-05T03:47:51.771Z,26.45
2024-03-05T03:50:19.220Z,25.08
2024-03-05T03:52:46.219Z,22.65
2024-03-05T03:55:13.252Z,25.15
2024-03-05T03:57:40.300Z,22.05
2024-03-05T04:00:09.125Z,21.48
2024-03-05T04:02:41.725Z,23.50
2024-03-05T04:05:10.977Z,26.17
2024-03-05T04:07:38.120Z,28.98
2024-03-05T04:10:09.080Z,30.60
2024-03-05T04:12:35.905Z,32.60
2024-03-05T04:15:05.915Z,35.03
2024-03-05T04:17:32.792Z,30.63
2024-03-05T04:20:00.048Z,33.10
2024-03-05T04:22:27.234Z,31.83
2024-03-05T04:24:56.508Z,32.40
2024-03-05T04:27:28.312Z,28.60
2024-03-05T04:29:58.100Z,30.27
2024-03-05T04:32:28.613Z,27.73
2024-03-05T04:35:02.062Z,25.52
2024-03-05T04:37:32.274Z,26.90
2024-03-05T04:39:59.710Z,24.08
2024-03-05T04:42:27.074Z,23.75
2024-03-05T04:44:57.088Z,23.10
2024-03-05T04:47:26.178Z,21.65
2024-03-05T04:49:53.593Z,22.48
2024-03-05T04:52:20.391Z,24.10
2024-03-05T04:54:47.383Z,25.33
2024-03-05T04:57:14.319Z,23.50
2024-03-05T04:59:42.313Z,24.38
2024-03-05T05:02:10.196Z,24.88
2024-03-05T05:04:39.537Z,25.90
2024-03-05T05:07:07.128Z,28.70
2024-03-05T05:09:37.965Z,32.83
2024-03-05T05:12:05.014Z,33.10
2024-03-05T05:14:35.219Z,32.90
2024-03-05T05:17:04.221Z,32.58
2024-03-05T05:19:31.376Z,31.90
2024-03-05T05:21:58.353Z,34.58
2024-03-05T05:24:25.411Z,36.75
2024-03-05T05:26:52.214Z,40.40
2024-03-05T05:29:27.284Z,40.50
2024-03-05T05:32:04.372Z,39.78
2024-03-05T05:34:31.643Z,35.35
2024-03-05T05:36:58.372Z,39.05
2024-03-05T05:39:25.996Z,43.42
2024-03-05T05:41:54.165Z,44.58
2024-03-05T05:44:21.558Z,39.67
2024-03-05T05:46:48.436Z,46.25
2024-03-05T05:49:21.008Z,43.53
2024-03-05T05:51:48.652Z,45.78
2024-03-05T05:54:19.803Z,46.95
2024-03-05T05:56:49.721Z,49.17
2024-03-05T05:59:18.153Z,48.13
2024-03-05T06:01:45.438Z,45.30
2024-03-05T06:04:13.056Z,43.38
2024-03-05T06:06:39.939Z,46.65
2024-03-05T06:09:10.451Z,44.40
2024-03-05T06:11:38.274Z,44.13
2024-03-05T06:14:06.119Z,36.63
2024-03-05T06:16:33.749Z,38.58
2024-03-05T06:19:01.474Z,43.72
2024-03-05T06:21:28.316Z,45.55
2024-03-05T06:23:55.498Z,42.42
2024-03-05T06:26:22.730Z,43.90
2024-03-05T06:28:49.887Z,44.08
2024-03-05T06:31:17.163Z,41.75
2024-03-05T06:33:45.444Z,42.03
2024-03-05T06:36:13.734Z,44.08
2024-03-05T06:38:41.049Z,42.47
2024-03-05T06:41:10.914Z,42.00
2024-03-05T06:43:38.759Z,43.83
2024-03-05T06:46:06.065Z,47.65
2024-03-05T06:48:34.624Z,46.92
2024-03-05T06:51:04.978Z,43.20
2024-03-05T06:53:50.611Z,46.60
2024-03-05T06:56:36.037Z,46.97
2024-03-05T06:59:05.833Z,43.30
2024-03-05T07:01:34.033Z,42.67
2024-03-05T07:04:02.880Z,43.88
2024-03-05T07:06:31.694Z,41.55
2024-03-05T07:09:01.134Z,40.45
2024-03-05T07:11:28.973Z,38.75
2024-03-05T07:13:56.830Z,38.10
2024-03-05T07:16:25.442Z,37.08
2024-03-05T07:18:56.638Z,36.40
2024-03-05T07:21:25.731Z,35.47
2024-03-05T07:23:55.067Z,33.90
2024-03-05T07:26:23.016Z,33.33
2024-03-05T07:28:50.940Z,35.00
2024-03-05T07:31:19.023Z,32.80
2024-03-05T07:33:49.832Z,34.20
2024-03-05T07:36:19.442Z,24.77
2024-03-05T07:38:46.577Z,28.95
2024-03-05T07:41:21.601Z,26.33
2024-03-05T07:43:53.914Z,24.92
2024-03-05T07:46:20.901Z,25.25
2024-03-05T07:48:48.002Z,22.58
2024-03-05T07:51:21.465Z,22.58
2024-03-05T07:53:52.828Z,25.75
2024-03-05T07:56:19.575Z,22.50
2024-03-05T07:58:46.698Z,20.35
2024-03-05T08:01:13.621Z,23.10
2024-03-05T08:03:42.555Z,27.88
2024-03-05T08:06:09.706Z,30.90
2024-03-05T08:08:36.923Z,26.23
2024-03-05T08:11:03.942Z,26.73
2024-03-05T08:13:31.121Z,28.10
2024-03-05T08:15:57.947Z,27.60
2024-03-05T08:18:24.952Z,26.10
2024-03-05T08:20:52.116Z,27.38
2024-03-05T08:23:19.221Z,29.95
2024-03-05T08:25:49.600Z,25.42
2024-03-05T08:28:16.726Z,26.88
2024-03-05T08:30:43.967Z,28.25
2024-03-05T08:33:11.617Z,30.60
2024-03-05T08:35:38.534Z,29.35
2024-03-05T08:38:05.883Z,30.13
2024-03-05T08:40:34.539Z,29.77
2024-03-05T08:43:05.080Z,31.47
2024-03-05T08:45:32.700Z,30.90
2024-03-05T08:47:59.943Z,36.65
2024-03-05T08:50:30.190Z,31.85
2024-03-05T08:53:00.800Z,34.20
2024-03-05T08:55:28.125Z,35.63
2024-03-05T08:57:56.182Z,32.13
2024-03-05T09:00:33.365Z,37.75
2024-03-05T09:03:10.941Z,34.80
2024-03-05T09:05:38.042Z,32.60
2024-03-05T09:08:06.648Z,33.67
2024-03-05T09:10:34.956Z,37.67
2024-03-05T09:13:02.330Z,34.40
2024-03-05T09:15:29.096Z,35.50
2024-03-05T09:17:56.155Z,35.45
2024-03-05T09:20:24.517Z,39.65
2024-03-05T09:22:51.813Z,40.03
2024-03-05T09:25:18.828Z,40.97
2024-03-05T09:27:48.463Z,41.25
2024-03-05T09:30:16.732Z,38.63
2024-03-05T09:32:45.493Z,45.53
2024-03-05T09:35:14.353Z,42.60
2024-03-05T09:37:48.446Z,40.33
2024-03-05T09:40:19.412Z,41.78
2024-03-05T09:42:47.468Z,42.10
2024-03-05T09:45:16.903Z,45.70
2024-03-05T09:47:44.673Z,45.20
2024-03-05T09:50:17.333Z,45.10
2024-03-05T09:52:45.172Z,43.35
2024-03-05T09:55:13.463Z,42.78
2024-03-05T09:57:42.031Z,43.10
2024-03-05T10:00:16.609Z,48.78
2024-03-05T10:02:53.317Z,44.72
2024-03-05T10:05:21.371Z,51.92
2024-03-05T10:07:49.441Z,56.15
2024-03-05T10:10:21.044Z,46.65
2024-03-05T10:12:48.505Z,50.08
2024-03-05T10:15:22.901Z,55.25
2024-03-05T10:17:52.324Z,50.78
2024-03-05T10:20:28.815Z,49.10
2024-03-05T10:22:59.564Z,59.58
2024-03-05T10:25:28.805Z,52.33
2024-03-05T10:27:57.098Z,56.30
2024-03-05T10:30:37.760Z,54.95
2024-03-05T10:33:12.147Z,53.60
2024-03-05T10:35:40.292Z,55.70
2024-03-05T10:38:11.291Z,51.45
2024-03-05T10:40:39.410Z,60.92
2024-03-05T10:43:08.938Z,57.33
2024-03-05T10:45:42.468Z,54.40
2024-03-05T10:48:11.930Z,48.40
2024-03-05T10:50:41.662Z,51.03
2024-03-05T10:53:10.257Z,53.22
2024-03-05T10:55:41.961Z,51.70
2024-03-05T10:58:14.861Z,47.45
2024-03-05T11:00:44.939Z,48.47
2024-03-05T11:03:14.279Z,48.67
2024-03-05T11:05:49.184Z,46.70
2024-03-05T11:08:20.203Z,53.67
2024-03-05T11:11:00.372Z,50.25
2024-03-05T11:15:55.104Z,46.25
2024-03-05T11:18:30.030Z,51.15
2024-03-05T11:20:57.284Z,51.80
2024-03-05T11:23:30.766Z,52.33
2024-03-05T11:30:42.816Z,48.05
2024-03-05T11:33:16.378Z,46.80
2024-03-05T11:35:52.271Z,51.60
2024-03-05T11:38:20.349Z,52.88
2024-03-05T11:40:47.763Z,46.80
2024-03-05T11:43:38.141Z,43.50
2024-03-05T11:48:41.178Z,46.97
2024-03-05T11:51:08.247Z,43.80
2024-03-05T11:53:36.882Z,36.67
2024-03-05T11:56:09.728Z,40.78
2024-03-05T11:58:39.552Z,39.90
2024-03-05T12:01:06.595Z,43.28
2024-03-05T12:03:33.876Z,41.33
2024-03-05T12:06:01.786Z,40.53
2024-03-05T12:08:29.095Z,44.25
2024-03-05T12:11:02.916Z,73.43
2024-03-05T12:13:32.519Z,58.25
2024-03-05T12:16:12.883Z,42.85
2024-03-05T12:18:40.997Z,40.05
2024-03-05T12:21:08.318Z,38.28
2024-03-05T12:23:41.789Z,39.85
2024-03-05T12:26:10.605Z,40.30
2024-03-05T12:28:38.296Z,45.20
2024-03-05T12:31:05.617Z,47.60
2024-03-05T12:33:32.675Z,46.20
2024-03-05T12:35:59.699Z,45.50
2024-03-05T12:38:33.250Z,45.80
2024-03-05T12:41:03.153Z,44.42
2024-03-05T12:43:30.528Z,41.17
2024-03-05T12:46:04.155Z,41.95
2024-03-05T12:48:36.265Z,40.70
2024-03-05T12:51:04.569Z,39.90
2024-03-05T12:53:32.043Z,45.25
2024-03-05T12:56:03.422Z,42.45
2024-03-05T12:58:43.832Z,42.80
2024-03-05T13:01:17.182Z,38.20
2024-03-05T13:03:44.857Z,38.45
2024-03-05T13:06:12.509Z,42.42
2024-03-05T13:08:40.837Z,47.88
2024-03-05T13:11:07.889Z,37.53
2024-03-05T13:13:35.144Z,37.05
2024-03-05T13:16:03.565Z,39.83
2024-03-05T13:18:30.594Z,39.50
2024-03-05T13:20:57.721Z,39.28
2024-03-05T13:23:24.889Z,43.17
2024-03-05T13:25:51.739Z,43.92
2024-03-05T13:28:18.796Z,46.50
2024-03-05T13:30:45.508Z,47.00
2024-03-05T13:33:12.880Z,41.60
2024-03-05T13:35:41.519Z,40.97
2024-03-05T13:38:11.410Z,35.63
2024-03-05T13:40:38.396Z,42.25
2024-03-05T13:43:05.427Z,42.72
2024-03-05T13:45:32.175Z,42.90
2024-03-05T13:48:00.427Z,38.70
2024-03-05T13:50:28.669Z,36.58
2024-03-05T13:52:56.205Z,39.33
2024-03-05T13:55:27.154Z,43.45
2024-03-05T13:57:54.342Z,41.58
2024-03-05T14:00:21.864Z,42.45
2024-03-05T14:02:49.777Z,42.92
2024-03-05T14:05:17.089Z,43.58
2024-03-05T14:07:45.710Z,43.63
2024-03-05T14:10:13.256Z,47.15
2024-03-05T14:12:41.284Z,35.63
2024-03-05T14:15:21.488Z,33.25
2024-03-05T14:17:49.375Z,36.58
2024-03-05T14:20:21.068Z,38.08
2024-03-05T14:22:48.566Z,43.33
2024-03-05T14:25:18.189Z,49.05
2024-03-05T14:27:48.520Z,44.10
2024-03-05T14:30:19.184Z,43.42
2024-03-05T14:32:46.759Z,40.53
2024-03-05T14:35:13.773Z,53.72
2024-03-05T14:37:43.604Z,53.33
2024-03-05T14:40:11.764Z,44.67
2024-03-05T14:42:39.112Z,44.13
2024-03-05T14:45:06.560Z,46.63
2024-03-05T14:47:33.834Z,48.70
2024-03-05T14:50:01.525Z,39.65
2024-03-05T14:52:30.196Z,48.53
2024-03-05T14:54:59.009Z,73.40
2024-03-05T14:57:27.814Z,74.53
2024-03-05T14:59:54.790Z,43.85
2024-03-05T15:02:22.066Z,45.25
2024-03-05T15:04:48.982Z,43.67
2024-03-05T15:07:17.080Z,41.45
2024-03-05T15:09:44.161Z,46.70
2024-03-05T15:12:14.215Z,47.97
2024-03-05T15:14:43.430Z,38.03
2024-03-05T15:19:37.885Z,54.25
2024-03-05T15:22:05.148Z,40.60
2024-03-05T15:24:32.935Z,37.20
2024-03-05T15:27:05.424Z,41.15
2024-03-05T15:29:33.451Z,46.75
2024-03-05T15:32:02.718Z,44.13
2024-03-05T15:34:30.006Z,45.08
2024-03-05T15:36:57.114Z,44.35
2024-03-05T15:39:24.147Z,46.88
2024-03-05T15:41:51.374Z,47.30
2024-03-05T15:44:19.520Z,56.45
2024-03-05T15:46:46.838Z,73.82
2024-03-05T15:49:13.763Z,59.47
2024-03-05T15:51:42.316Z,53.53
2024-03-05T15:54:09.180Z,57.10
2024-03-05T15:56:46.221Z,64.05
2024-03-05T15:59:32.170Z,62.58
2024-03-05T16:01:59.807Z,144.13
2024-03-05T16:04:48.761Z,80.35
2024-03-05T16:07:13.778Z,67.28
2024-03-05T16:09:40.982Z,62.58
2024-03-05T16:12:12.137Z,62.00
2024-03-05T16:14:41.752Z,67.45
2024-03-05T16:17:10.815Z,58.22
2024-03-05T16:19:40.156Z,54.88
2024-03-05T16:22:09.886Z,56.67
2024-03-05T16:24:36.693Z,59.65
2024-03-05T16:27:03.911Z,50.65
2024-03-05T16:29:30.660Z,58.63
2024-03-05T16:31:59.734Z,56.53
2024-03-05T16:34:26.740Z,55.72
2024-03-05T16:36:53.876Z,58.15
2024-03-05T16:39:21.480Z,59.78
2024-03-05T16:41:48.541Z,54.53
2024-03-05T16:44:15.462Z,53.75
2024-03-05T16:46:42.711Z,58.00
2024-03-05T16:49:09.725Z,88.38
2024-03-05T16:51:41.118Z,84.82
2024-03-05T16:54:08.028Z,94.90
2024-03-05T16:56:35.119Z,74.35
2024-03-05T16:59:05.342Z,69.65
2024-03-05T17:01:32.722Z,67.93
2024-03-05T17:04:01.713Z,62.53
2024-03-05T17:06:29.581Z,61.75
2024-03-05T17:08:57.553Z,61.00
2024-03-05T17:11:25.063Z,65.45
2024-03-05T17:13:52.135Z,69.40
2024-03-05T17:16:20.228Z,69.78
2024-03-05T17:18:47.286Z,62.03
2024-03-05T17:21:14.684Z,58.05
2024-03-05T17:23:46.188Z,69.10
2024-03-05T17:26:16.239Z,69.32
2024-03-05T17:28:43.745Z,90.30
2024-03-05T17:31:12.746Z,148.55
2024-03-05T17:33:40.416Z,170.13
2024-03-05T17:36:07.827Z,196.65
2024-03-05T17:38:34.660Z,156.60
2024-03-05T17:41:04.550Z,163.15
2024-03-05T17:43:31.732Z,155.05
2024-03-05T17:45:59.720Z,143.85
2024-03-05T17:48:28.420Z,130.40
2024-03-05T17:50:55.725Z,120.68
2024-03-05T17:53:22.892Z,115.78
2024-03-05T17:55:49.989Z,109.88
2024-03-05T17:58:16.802Z,103.78
2024-03-05T18:00:47.436Z,85.03
2024-03-05T18:03:23.470Z,86.50
2024-03-05T18:05:50.982Z,73.28
2024-03-05T18:08:17.898Z,70.43
2024-03-05T18:10:45.165Z,72.05
2024-03-05T18:13:12.572Z,68.65
2024-03-05T18:15:40.659Z,69.82
2024-03-05T18:18:08.207Z,69.18
2024-03-05T18:20:36.518Z,66.68
2024-03-05T18:23:05.782Z,68.60
2024-03-05T18:25:37.110Z,71.25
2024-03-05T18:28:06.298Z,60.50
2024-03-05T18:30:39.276Z,61.38
2024-03-05T18:33:08.767Z,59.95
2024-03-05T18:35:38.213Z,56.30
2024-03-05T18:38:16.599Z,59.55
2024-03-05T18:40:53.962Z,65.90
2024-03-05T18:43:22.571Z,66.13
2024-03-05T18:45:50.913Z,69.30
2024-03-05T18:48:18.307Z,58.33
2024-03-05T18:50:46.873Z,61.20
2024-03-05T18:53:14.066Z,59.15
2024-03-05T18:55:42.273Z,61.13
2024-03-05T18:58:09.800Z,58.95
2024-03-05T19:00:41.226Z,57.13
2024-03-05T19:03:08.626Z,51.63
2024-03-05T19:05:36.415Z,56.30
2024-03-05T19:08:06.261Z,58.15
2024-03-05T19:10:33.581Z,54.35
2024-03-05T19:13:03.635Z,59.70
2024-03-05T19:15:34.745Z,66.32
2024-03-05T19:18:05.494Z,69.30
2024-03-05T19:20:33.006Z,65.53
2024-03-05T19:22:59.801Z,65.70
2024-03-05T19:25:29.569Z,61.88
2024-03-05T19:27:56.591Z,61.28
2024-03-05T19:30:23.841Z,57.85
2024-03-05T19:32:50.630Z,62.55
2024-03-05T19:35:18.757Z,67.22
2024-03-05T19:37:49.592Z,68.57
2024-03-05T19:40:18.533Z,65.47
2024-03-05T19:42:47.929Z,68.25
2024-03-05T19:45:15.228Z,62.67
2024-03-05T19:47:42.424Z,89.40
2024-03-05T19:50:14.765Z,99.20
2024-03-05T19:52:41.994Z,84.72
2024-03-05T19:55:09.861Z,107.97
2024-03-05T19:57:36.733Z,102.65
2024-03-05T20:00:12.936Z,111.85
2024-03-05T20:02:40.480Z,84.53
2024-03-05T20:05:08.188Z,85.22
2024-03-05T20:07:35.223Z,88.45
2024-03-05T20:10:02.724Z,90.28
2024-03-05T20:12:29.777Z,88.40
2024-03-05T20:14:56.840Z,97.15
2024-03-05T20:17:25.558Z,96.10
2024-03-05T20:19:54.555Z,98.90
2024-03-05T20:22:24.276Z,95.72
2024-03-05T20:27:31.747Z,90.63
2024-03-05T20:30:00.756Z,87.35
2024-03-05T20:32:30.682Z,85.70
2024-03-05T20:34:58.444Z,82.10
2024-03-05T20:37:25.352Z,91.28
2024-03-05T20:39:55.856Z,90.63
2024-03-05T20:42:24.362Z,91.20
2024-03-05T20:44:51.417Z,86.35
2024-03-05T20:47:18.540Z,92.07
2024-03-05T20:49:46.715Z,88.90
2024-03-05T20:52:13.651Z,92.82
2024-03-05T20:54:40.720Z,88.55
2024-03-05T20:57:07.578Z,90.72
2024-03-05T20:59:35.303Z,80.90
2024-03-05T21:02:10.021Z,86.60
2024-03-05T21:04:38.394Z,87.00
2024-03-05T21:07:06.206Z,86.75
2024-03-05T21:09:34.586Z,93.53
2024-03-05T21:12:01.588Z,86.25
2024-03-05T21:14:28.842Z,85.22
2024-03-05T21:16:55.794Z,76.85
2024-03-05T21:19:27.224Z,84.88
2024-03-05T21:21:54.179Z,79.80
2024-03-05T21:24:24.056Z,76.60
2024-03-05T21:27:09.572Z,76.82
2024-03-05T21:29:38.184Z,74.53
2024-03-05T21:32:05.114Z,75.00
2024-03-05T21:34:32.217Z,71.57
2024-03-05T21:36:59.096Z,70.13
2024-03-05T21:39:26.490Z,71.68
2024-03-05T21:41:55.585Z,75.20
2024-03-05T21:44:29.891Z,68.97
2024-03-05T21:47:01.675Z,69.10
2024-03-05T21:49:28.709Z,65.78
2024-03-05T21:51:55.503Z,69.15
2024-03-05T21:54:24.610Z,70.95
2024-03-05T21:56:51.893Z,77.47
2024-03-05T21:59:19.105Z,69.43
2024-03-05T22:01:47.970Z,74.30
2024-03-05T22:04:19.088Z,67.63
2024-03-05T22:06:46.094Z,70.47
2024-03-05T22:09:13.360Z,68.07
2024-03-05T22:11:41.644Z,73.05
2024-03-05T22:14:11.121Z,71.68
2024-03-05T22:16:39.106Z,69.57
2024-03-05T22:19:06.840Z,69.40
2024-03-05T22:21:33.725Z,76.75
2024-03-05T22:24:01.389Z,72.22
2024-03-05T22:26:30.934Z,71.75
2024-03-05T22:28:58.374Z,74.63
2024-03-05T22:31:26.283Z,78.40
2024-03-05T22:33:55.547Z,78.40
2024-03-05T22:36:22.425Z,81.07
2024-03-05T22:38:50.165Z,75.40
2024-03-05T22:41:17.815Z,69.75
2024-03-05T22:43:46.327Z,72.25
2024-03-05T22:46:14.469Z,71.53
2024-03-05T22:48:41.547Z,74.43
2024-03-05T22:51:10.315Z,70.90
2024-03-05T22:53:38.879Z,76.60
2024-03-05T22:56:08.759Z,71.82
2024-03-05T23:01:05.983Z,76.95
2024-03-05T23:08:02.107Z,71.45
2024-03-05T23:10:30.118Z,70.85
2024-03-05T23:12:57.529Z,72.93
